Portada
METAR-TAF:

METAR-TAF

Aeroports :

Arbela, Iraq

latitud: 36-14-15N, longitud: 43-57-47E, altitud: 415 m

Observació

L'informe es va fer fa 1 hora i 35 minuts, a les 07:00 UTC
Vent 6 kt del Nord
Temperatura 35°C
Humitat 19%
Pressió 1013 hPa
Visibilitat: 8000 m
Escasses núvols a una alçada de 4500 ft
Núvols disperses a una alçada de 10000 ft

METAR: ORER 290700Z 01006KT 8000 FEW045 SCT100 35/08 Q1013

Hora: 11:35 (08:35 UTC)

Pronòstic

L'informe es va fer fa 3 hores i 25 minuts, a les 05:10 UTC
Pronòstic vàlid del 29 a les 06 UTC al 30 a les 06 UTC
Vent 9 kt del Nord-Est
Visibilitat: 8000 m
Escasses núvols a una alçada de 3500 ft
Evolucionant progressivament
l' 29 a les 12 UTC al 29 a les 14 UTC
Vent 7 kt del Oest/Nord-Oest

TAF: ORER 290510Z 2906/3006 04009KT 8000 FEW035 BECMG 2912/2914 29007KT

Observacions i pronòstics meteorològics de més de 4000 aeroports (METAR i TAF).

Les estacions disponibles són els punts grocs i vermells al mapa.

Posi el ratolí al punt desitjat per veure el nom de l'estació.

Feu clic per veure les observacions i els pronòstics meteorològics.

Per canviar el mapa: feu clic els botons verds amb una creu de color negre per apropar; al botó verd amb un guió per allunyar la imatge; o en les fletxes verdes per a mapes adjacents.


METAR-TAF: